sensor_id;sensor_type;location;lat;lon;timestamp;temperature;humidity
22623;DHT22;11478;51.094;7.030;2023-06-14T00:00:50;15.10;99.90
22623;DHT22;11478;51.094;7.030;2023-06-14T00:03:18;15.10;99.90
22623;DHT22;11478;51.094;7.030;2023-06-14T00:05:50;15.10;99.90
22623;DHT22;11478;51.094;7.030;2023-06-14T00:08:16;15.00;99.90
22623;DHT22;11478;51.094;7.030;2023-06-14T00:10:49;15.00;99.90
22623;DHT22;11478;51.094;7.030;2023-06-14T00:13:15;15.00;99.90
22623;DHT22;11478;51.094;7.030;2023-06-14T00:15:41;14.90;99.90
22623;DHT22;11478;51.094;7.030;2023-06-14T00:18:08;14.80;99.90
22623;DHT22;11478;51.094;7.030;2023-06-14T00:20:46;14.70;99.90
22623;DHT22;11478;51.094;7.030;2023-06-14T00:23:12;14.70;99.90
22623;DHT22;11478;51.094;7.030;2023-06-14T00:25:40;14.60;99.90
22623;DHT22;11478;51.094;7.030;2023-06-14T00:28:06;14.60;99.90
22623;DHT22;11478;51.094;7.030;2023-06-14T00:30:32;14.60;99.90
22623;DHT22;11478;51.094;7.030;2023-06-14T00:32:58;14.60;99.90
22623;DHT22;11478;51.094;7.030;2023-06-14T00:35:40;14.60;99.90
22623;DHT22;11478;51.094;7.030;2023-06-14T00:38:05;14.50;99.90
22623;DHT22;11478;51.094;7.030;2023-06-14T00:40:40;14.50;99.90
22623;DHT22;11478;51.094;7.030;2023-06-14T00:43:06;14.50;99.90
22623;DHT22;11478;51.094;7.030;2023-06-14T00:45:32;14.50;99.90
22623;DHT22;11478;51.094;7.030;2023-06-14T00:48:02;14.50;99.90
22623;DHT22;11478;51.094;7.030;2023-06-14T00:50:30;14.40;99.90
22623;DHT22;11478;51.094;7.030;2023-06-14T00:53:01;14.40;99.90
22623;DHT22;11478;51.094;7.030;2023-06-14T00:55:30;14.30;99.90
22623;DHT22;11478;51.094;7.030;2023-06-14T00:57:58;14.30;99.90
22623;DHT22;11478;51.094;7.030;2023-06-14T01:00:25;14.20;99.90
22623;DHT22;11478;51.094;7.030;2023-06-14T01:02:51;14.20;99.90
22623;DHT22;11478;51.094;7.030;2023-06-14T01:05:20;14.20;99.90
22623;DHT22;11478;51.094;7.030;2023-06-14T01:10:56;14.10;99.90
22623;DHT22;11478;51.094;7.030;2023-06-14T01:16:02;14.00;99.90
22623;DHT22;11478;51.094;7.030;2023-06-14T01:18:29;14.00;99.90
22623;DHT22;11478;51.094;7.030;2023-06-14T01:20:56;13.90;99.90
22623;DHT22;11478;51.094;7.030;2023-06-14T01:23:23;13.90;99.90
22623;DHT22;11478;51.094;7.030;2023-06-14T01:25:50;13.90;99.90
22623;DHT22;11478;51.094;7.030;2023-06-14T01:28:21;13.90;99.90
22623;DHT22;11478;51.094;7.030;2023-06-14T01:30:52;13.80;99.90
22623;DHT22;11478;51.094;7.030;2023-06-14T01:33:23;13.80;99.90
22623;DHT22;11478;51.094;7.030;2023-06-14T01:35:54;13.80;99.90
22623;DHT22;11478;51.094;7.030;2023-06-14T01:38:25;13.70;99.90
22623;DHT22;11478;51.094;7.030;2023-06-14T01:40:54;13.70;99.90
22623;DHT22;11478;51.094;7.030;2023-06-14T01:43:21;13.60;99.90
22623;DHT22;11478;51.094;7.030;2023-06-14T01:45:51;13.60;99.90
22623;DHT22;11478;51.094;7.030;2023-06-14T01:48:17;13.60;99.90
22623;DHT22;11478;51.094;7.030;2023-06-14T01:50:44;13.60;99.90
22623;DHT22;11478;51.094;7.030;2023-06-14T01:53:10;13.50;99.90
22623;DHT22;11478;51.094;7.030;2023-06-14T01:55:38;13.50;99.90
22623;DHT22;11478;51.094;7.030;2023-06-14T01:58:09;13.50;99.90
22623;DHT22;11478;51.094;7.030;2023-06-14T02:00:51;13.50;99.90
22623;DHT22;11478;51.094;7.030;2023-06-14T02:03:21;13.40;99.90
22623;DHT22;11478;51.094;7.030;2023-06-14T02:05:48;13.40;99.90
22623;DHT22;11478;51.094;7.030;2023-06-14T02:08:13;13.40;99.90
22623;DHT22;11478;51.094;7.030;2023-06-14T02:10:50;13.40;99.90
22623;DHT22;11478;51.094;7.030;2023-06-14T02:13:16;13.30;99.90
22623;DHT22;11478;51.094;7.030;2023-06-14T02:15:45;13.30;99.90
22623;DHT22;11478;51.094;7.030;2023-06-14T02:18:11;13.30;99.90
22623;DHT22;11478;51.094;7.030;2023-06-14T02:20:40;13.20;99.90
22623;DHT22;11478;51.094;7.030;2023-06-14T02:23:06;13.30;99.90
22623;DHT22;11478;51.094;7.030;2023-06-14T02:25:33;13.20;99.90
22623;DHT22;11478;51.094;7.030;2023-06-14T02:27:59;13.20;99.90
22623;DHT22;11478;51.094;7.030;2023-06-14T02:30:25;13.20;99.90
22623;DHT22;11478;51.094;7.030;2023-06-14T02:32:51;13.20;99.90
22623;DHT22;11478;51.094;7.030;2023-06-14T02:35:20;13.20;99.90
22623;DHT22;11478;51.094;7.030;2023-06-14T02:37:50;13.20;99.90
22623;DHT22;11478;51.094;7.030;2023-06-14T02:40:19;13.10;99.90
22623;DHT22;11478;51.094;7.030;2023-06-14T02:42:46;13.10;99.90
22623;DHT22;11478;51.094;7.030;2023-06-14T02:45:12;13.10;99.90
22623;DHT22;11478;51.094;7.030;2023-06-14T02:47:38;13.10;99.90
22623;DHT22;11478;51.094;7.030;2023-06-14T02:50:04;13.00;99.90
22623;DHT22;11478;51.094;7.030;2023-06-14T02:52:34;13.00;99.90
22623;DHT22;11478;51.094;7.030;2023-06-14T02:55:00;12.90;99.90
22623;DHT22;11478;51.094;7.030;2023-06-14T02:57:28;12.90;99.90
22623;DHT22;11478;51.094;7.030;2023-06-14T02:59:53;12.90;99.90
22623;DHT22;11478;51.094;7.030;2023-06-14T03:02:24;12.90;99.90
22623;DHT22;11478;51.094;7.030;2023-06-14T03:04:50;12.80;99.90
22623;DHT22;11478;51.094;7.030;2023-06-14T03:07:17;12.80;99.90
22623;DHT22;11478;51.094;7.030;2023-06-14T03:09:45;12.80;99.90
22623;DHT22;11478;51.094;7.030;2023-06-14T03:12:14;12.90;99.90
22623;DHT22;11478;51.094;7.030;2023-06-14T03:14:40;12.90;99.90
22623;DHT22;11478;51.094;7.030;2023-06-14T03:17:08;12.90;99.90
22623;DHT22;11478;51.094;7.030;2023-06-14T03:19:35;12.80;99.90
22623;DHT22;11478;51.094;7.030;2023-06-14T03:22:02;12.70;99.90
22623;DHT22;11478;51.094;7.030;2023-06-14T03:24:28;12.70;99.90
22623;DHT22;11478;51.094;7.030;2023-06-14T03:26:58;12.60;99.90
22623;DHT22;11478;51.094;7.030;2023-06-14T03:29:24;12.50;99.90
22623;DHT22;11478;51.094;7.030;2023-06-14T03:32:03;12.50;99.90
22623;DHT22;11478;51.094;7.030;2023-06-14T03:34:29;12.40;99.90
22623;DHT22;11478;51.094;7.030;2023-06-14T03:37:05;12.40;99.90
22623;DHT22;11478;51.094;7.030;2023-06-14T03:39:34;12.40;99.90
22623;DHT22;11478;51.094;7.030;2023-06-14T03:42:00;12.30;99.90
22623;DHT22;11478;51.094;7.030;2023-06-14T03:44:32;12.30;99.90
22623;DHT22;11478;51.094;7.030;2023-06-14T03:46:58;12.20;99.90
22623;DHT22;11478;51.094;7.030;2023-06-14T03:49:26;12.20;99.90
22623;DHT22;11478;51.094;7.030;2023-06-14T03:51:52;12.20;99.90
22623;DHT22;11478;51.094;7.030;2023-06-14T03:54:30;12.10;99.90
22623;DHT22;11478;51.094;7.030;2023-06-14T03:56:58;12.20;99.90
22623;DHT22;11478;51.094;7.030;2023-06-14T03:59:40;12.10;99.90
22623;DHT22;11478;51.094;7.030;2023-06-14T04:02:07;12.00;99.90
22623;DHT22;11478;51.094;7.030;2023-06-14T04:04:38;12.00;99.90
22623;DHT22;11478;51.094;7.030;2023-06-14T04:07:04;12.00;99.90
22623;DHT22;11478;51.094;7.030;2023-06-14T04:09:33;11.90;99.90
22623;DHT22;11478;51.094;7.030;2023-06-14T04:11:59;11.90;99.90
22623;DHT22;11478;51.094;7.030;2023-06-14T04:14:29;12.00;99.90
22623;DHT22;11478;51.094;7.030;2023-06-14T04:16:56;12.00;99.90
22623;DHT22;11478;51.094;7.030;2023-06-14T04:19:23;12.00;99.90
22623;DHT22;11478;51.094;7.030;2023-06-14T04:21:56;12.00;99.90
22623;DHT22;11478;51.094;7.030;2023-06-14T04:24:30;12.00;99.90
22623;DHT22;11478;51.094;7.030;2023-06-14T04:26:58;12.00;99.90
22623;DHT22;11478;51.094;7.030;2023-06-14T04:29:43;12.00;99.90
22623;DHT22;11478;51.094;7.030;2023-06-14T04:32:16;12.00;99.90
22623;DHT22;11478;51.094;7.030;2023-06-14T04:34:44;12.10;99.90
22623;DHT22;11478;51.094;7.030;2023-06-14T04:37:14;12.10;99.90
22623;DHT22;11478;51.094;7.030;2023-06-14T04:39:44;12.20;99.90
22623;DHT22;11478;51.094;7.030;2023-06-14T04:42:17;12.20;99.90
22623;DHT22;11478;51.094;7.030;2023-06-14T04:44:46;12.20;99.90
22623;DHT22;11478;51.094;7.030;2023-06-14T04:47:20;12.30;99.90
22623;DHT22;11478;51.094;7.030;2023-06-14T04:49:49;12.40;99.90
22623;DHT22;11478;51.094;7.030;2023-06-14T04:52:17;12.40;99.90
22623;DHT22;11478;51.094;7.030;2023-06-14T04:54:46;12.50;99.90
22623;DHT22;11478;51.094;7.030;2023-06-14T04:57:13;12.60;99.90
22623;DHT22;11478;51.094;7.030;2023-06-14T04:59:43;12.70;99.90
22623;DHT22;11478;51.094;7.030;2023-06-14T05:02:19;12.80;99.90
22623;DHT22;11478;51.094;7.030;2023-06-14T05:04:45;12.90;99.90
22623;DHT22;11478;51.094;7.030;2023-06-14T05:07:17;13.00;99.90
22623;DHT22;11478;51.094;7.030;2023-06-14T05:09:43;13.10;99.90
22623;DHT22;11478;51.094;7.030;2023-06-14T05:12:14;13.20;99.90
22623;DHT22;11478;51.094;7.030;2023-06-14T05:14:43;13.20;99.90
22623;DHT22;11478;51.094;7.030;2023-06-14T05:17:09;13.30;99.90
22623;DHT22;11478;51.094;7.030;2023-06-14T05:19:35;13.40;99.90
22623;DHT22;11478;51.094;7.030;2023-06-14T05:22:03;13.50;99.90
22623;DHT22;11478;51.094;7.030;2023-06-14T05:24:29;13.50;99.90
22623;DHT22;11478;51.094;7.030;2023-06-14T05:27:12;13.60;99.90
22623;DHT22;11478;51.094;7.030;2023-06-14T05:29:41;13.70;99.90
22623;DHT22;11478;51.094;7.030;2023-06-14T05:32:16;13.80;99.90
22623;DHT22;11478;51.094;7.030;2023-06-14T05:34:44;13.90;99.90
22623;DHT22;11478;51.094;7.030;2023-06-14T05:37:17;14.00;99.90
22623;DHT22;11478;51.094;7.030;2023-06-14T05:39:58;14.00;99.90
22623;DHT22;11478;51.094;7.030;2023-06-14T05:42:24;14.10;99.90
22623;DHT22;11478;51.094;7.030;2023-06-14T05:45:00;14.20;99.90
22623;DHT22;11478;51.094;7.030;2023-06-14T05:47:32;14.30;99.90
22623;DHT22;11478;51.094;7.030;2023-06-14T05:49:58;14.30;99.90
22623;DHT22;11478;51.094;7.030;2023-06-14T05:52:34;14.40;99.90
22623;DHT22;11478;51.094;7.030;2023-06-14T05:55:01;14.60;99.90
22623;DHT22;11478;51.094;7.030;2023-06-14T05:57:30;14.70;99.90
22623;DHT22;11478;51.094;7.030;2023-06-14T05:59:55;14.80;99.90
22623;DHT22;11478;51.094;7.030;2023-06-14T06:02:28;15.00;99.90
22623;DHT22;11478;51.094;7.030;2023-06-14T06:04:53;15.10;99.90
22623;DHT22;11478;51.094;7.030;2023-06-14T06:07:19;15.30;99.90
22623;DHT22;11478;51.094;7.030;2023-06-14T06:09:48;15.60;99.90
22623;DHT22;11478;51.094;7.030;2023-06-14T06:12:15;15.90;99.90
22623;DHT22;11478;51.094;7.030;2023-06-14T06:14:41;16.20;99.90
22623;DHT22;11478;51.094;7.030;2023-06-14T06:17:08;16.40;99.90
22623;DHT22;11478;51.094;7.030;2023-06-14T06:19:34;16.70;99.90
22623;DHT22;11478;51.094;7.030;2023-06-14T06:22:00;16.90;99.90
22623;DHT22;11478;51.094;7.030;2023-06-14T06:24:25;17.20;99.90
22623;DHT22;11478;51.094;7.030;2023-06-14T06:26:55;17.40;99.90
22623;DHT22;11478;51.094;7.030;2023-06-14T06:29:21;17.60;99.90
22623;DHT22;11478;51.094;7.030;2023-06-14T06:31:47;17.80;99.90
22623;DHT22;11478;51.094;7.030;2023-06-14T06:34:13;18.10;99.90
22623;DHT22;11478;51.094;7.030;2023-06-14T06:36:39;18.20;99.90
22623;DHT22;11478;51.094;7.030;2023-06-14T06:39:05;18.30;99.90
22623;DHT22;11478;51.094;7.030;2023-06-14T06:41:38;18.40;99.90
22623;DHT22;11478;51.094;7.030;2023-06-14T06:44:06;18.50;99.90
22623;DHT22;11478;51.094;7.030;2023-06-14T06:47:33;18.50;99.90
22623;DHT22;11478;51.094;7.030;2023-06-14T06:50:14;18.70;99.90
22623;DHT22;11478;51.094;7.030;2023-06-14T06:52:41;18.90;99.90
22623;DHT22;11478;51.094;7.030;2023-06-14T06:55:11;19.00;99.90
22623;DHT22;11478;51.094;7.030;2023-06-14T06:57:43;19.10;99.90
22623;DHT22;11478;51.094;7.030;2023-06-14T07:00:12;19.20;99.90
22623;DHT22;11478;51.094;7.030;2023-06-14T07:02:48;19.30;99.90
22623;DHT22;11478;51.094;7.030;2023-06-14T07:05:14;19.40;99.90
22623;DHT22;11478;51.094;7.030;2023-06-14T07:07:43;19.40;99.90
22623;DHT22;11478;51.094;7.030;2023-06-14T07:10:09;19.50;99.90
22623;DHT22;11478;51.094;7.030;2023-06-14T07:12:38;19.60;99.90
22623;DHT22;11478;51.094;7.030;2023-06-14T07:15:09;19.70;99.90
22623;DHT22;11478;51.094;7.030;2023-06-14T07:17:38;19.80;99.70
22623;DHT22;11478;51.094;7.030;2023-06-14T07:20:05;19.90;98.40
22623;DHT22;11478;51.094;7.030;2023-06-14T07:22:44;20.00;98.10
22623;DHT22;11478;51.094;7.030;2023-06-14T07:25:11;20.00;98.40
22623;DHT22;11478;51.094;7.030;2023-06-14T07:27:43;20.10;99.50
22623;DHT22;11478;51.094;7.030;2023-06-14T07:30:09;20.20;97.20
22623;DHT22;11478;51.094;7.030;2023-06-14T07:32:39;20.20;95.70
22623;DHT22;11478;51.094;7.030;2023-06-14T07:35:05;20.30;95.50
22623;DHT22;11478;51.094;7.030;2023-06-14T07:37:46;20.40;96.00
22623;DHT22;11478;51.094;7.030;2023-06-14T07:40:29;20.50;95.30
22623;DHT22;11478;51.094;7.030;2023-06-14T07:42:57;20.60;95.20
22623;DHT22;11478;51.094;7.030;2023-06-14T07:45:23;20.70;94.70
22623;DHT22;11478;51.094;7.030;2023-06-14T07:47:49;20.80;94.60
22623;DHT22;11478;51.094;7.030;2023-06-14T07:50:15;20.90;95.20
22623;DHT22;11478;51.094;7.030;2023-06-14T07:52:43;20.90;96.70
22623;DHT22;11478;51.094;7.030;2023-06-14T07:55:15;21.00;94.40
22623;DHT22;11478;51.094;7.030;2023-06-14T07:57:48;21.10;94.70
22623;DHT22;11478;51.094;7.030;2023-06-14T08:00:15;21.10;94.60
22623;DHT22;11478;51.094;7.030;2023-06-14T08:02:52;21.20;94.10
22623;DHT22;11478;51.094;7.030;2023-06-14T08:05:24;21.30;91.70
22623;DHT22;11478;51.094;7.030;2023-06-14T08:07:55;21.30;92.40
22623;DHT22;11478;51.094;7.030;2023-06-14T08:10:22;21.30;93.10
22623;DHT22;11478;51.094;7.030;2023-06-14T08:12:48;21.50;91.30
22623;DHT22;11478;51.094;7.030;2023-06-14T08:15:23;21.60;91.00
22623;DHT22;11478;51.094;7.030;2023-06-14T08:17:52;21.70;90.40
22623;DHT22;11478;51.094;7.030;2023-06-14T08:20:20;22.10;90.90
22623;DHT22;11478;51.094;7.030;2023-06-14T08:22:45;22.50;91.20
22623;DHT22;11478;51.094;7.030;2023-06-14T08:25:13;22.70;90.50
22623;DHT22;11478;51.094;7.030;2023-06-14T08:27:42;22.90;90.70
22623;DHT22;11478;51.094;7.030;2023-06-14T08:30:13;23.00;87.00
22623;DHT22;11478;51.094;7.030;2023-06-14T08:32:42;22.80;88.30
22623;DHT22;11478;51.094;7.030;2023-06-14T08:35:13;22.50;88.50
22623;DHT22;11478;51.094;7.030;2023-06-14T08:37:45;22.30;87.10
22623;DHT22;11478;51.094;7.030;2023-06-14T08:40:21;22.20;90.40
22623;DHT22;11478;51.094;7.030;2023-06-14T08:42:51;22.10;88.50
22623;DHT22;11478;51.094;7.030;2023-06-14T08:45:20;22.00;87.40
22623;DHT22;11478;51.094;7.030;2023-06-14T08:47:47;22.00;90.20
22623;DHT22;11478;51.094;7.030;2023-06-14T08:50:24;22.00;89.40
22623;DHT22;11478;51.094;7.030;2023-06-14T08:53:00;22.10;88.00
22623;DHT22;11478;51.094;7.030;2023-06-14T08:55:28;22.10;89.40
22623;DHT22;11478;51.094;7.030;2023-06-14T08:58:18;22.10;87.40
22623;DHT22;11478;51.094;7.030;2023-06-14T09:00:57;22.10;88.30
22623;DHT22;11478;51.094;7.030;2023-06-14T09:03:24;22.10;89.20
22623;DHT22;11478;51.094;7.030;2023-06-14T09:05:58;22.20;91.00
22623;DHT22;11478;51.094;7.030;2023-06-14T09:08:27;22.30;91.20
22623;DHT22;11478;51.094;7.030;2023-06-14T09:10:57;22.30;91.80
22623;DHT22;11478;51.094;7.030;2023-06-14T09:13:26;22.30;91.00
22623;DHT22;11478;51.094;7.030;2023-06-14T09:15:52;22.30;91.90
22623;DHT22;11478;51.094;7.030;2023-06-14T09:18:20;22.30;91.40
22623;DHT22;11478;51.094;7.030;2023-06-14T09:20:46;22.20;90.50
22623;DHT22;11478;51.094;7.030;2023-06-14T09:23:20;22.30;91.00
22623;DHT22;11478;51.094;7.030;2023-06-14T09:25:47;22.20;91.00
22623;DHT22;11478;51.094;7.030;2023-06-14T09:28:13;22.20;91.40
22623;DHT22;11478;51.094;7.030;2023-06-14T09:30:39;22.20;90.90
22623;DHT22;11478;51.094;7.030;2023-06-14T09:33:05;22.20;93.00
22623;DHT22;11478;51.094;7.030;2023-06-14T09:35:32;22.20;92.20
22623;DHT22;11478;51.094;7.030;2023-06-14T09:38:05;22.20;92.60
22623;DHT22;11478;51.094;7.030;2023-06-14T09:40:35;22.20;91.50
22623;DHT22;11478;51.094;7.030;2023-06-14T09:43:05;22.20;93.00
22623;DHT22;11478;51.094;7.030;2023-06-14T09:45:35;22.20;93.50
22623;DHT22;11478;51.094;7.030;2023-06-14T09:48:01;22.20;92.40
22623;DHT22;11478;51.094;7.030;2023-06-14T09:50:27;22.20;92.80
22623;DHT22;11478;51.094;7.030;2023-06-14T09:53:06;22.20;92.40
22623;DHT22;11478;51.094;7.030;2023-06-14T09:55:35;22.20;92.10
22623;DHT22;11478;51.094;7.030;2023-06-14T09:58:23;22.20;93.00
22623;DHT22;11478;51.094;7.030;2023-06-14T10:00:54;22.20;93.10
22623;DHT22;11478;51.094;7.030;2023-06-14T10:03:28;22.30;94.10
22623;DHT22;11478;51.094;7.030;2023-06-14T10:05:55;22.40;93.90
22623;DHT22;11478;51.094;7.030;2023-06-14T10:08:42;22.50;92.70
22623;DHT22;11478;51.094;7.030;2023-06-14T10:11:12;22.60;93.00
22623;DHT22;11478;51.094;7.030;2023-06-14T10:13:38;22.60;91.90
22623;DHT22;11478;51.094;7.030;2023-06-14T10:18:42;22.60;93.20
22623;DHT22;11478;51.094;7.030;2023-06-14T10:21:23;22.50;92.30
22623;DHT22;11478;51.094;7.030;2023-06-14T10:23:52;22.40;92.00
22623;DHT22;11478;51.094;7.030;2023-06-14T10:26:28;22.40;92.90
22623;DHT22;11478;51.094;7.030;2023-06-14T10:29:01;22.40;93.40
22623;DHT22;11478;51.094;7.030;2023-06-14T10:31:46;22.50;92.80
22623;DHT22;11478;51.094;7.030;2023-06-14T10:34:23;22.50;93.30
22623;DHT22;11478;51.094;7.030;2023-06-14T10:37:06;22.60;92.90
22623;DHT22;11478;51.094;7.030;2023-06-14T10:39:44;22.70;93.10
22623;DHT22;11478;51.094;7.030;2023-06-14T10:42:14;22.70;92.60
22623;DHT22;11478;51.094;7.030;2023-06-14T10:44:41;22.70;92.80
22623;DHT22;11478;51.094;7.030;2023-06-14T10:47:21;22.70;93.30
22623;DHT22;11478;51.094;7.030;2023-06-14T10:50:15;22.70;92.70
22623;DHT22;11478;51.094;7.030;2023-06-14T10:52:45;22.70;92.00
22623;DHT22;11478;51.094;7.030;2023-06-14T10:55:17;22.60;91.90
22623;DHT22;11478;51.094;7.030;2023-06-14T10:57:49;22.60;92.00
22623;DHT22;11478;51.094;7.030;2023-06-14T11:00:20;22.60;92.40
22623;DHT22;11478;51.094;7.030;2023-06-14T11:08:47;22.90;91.20
22623;DHT22;11478;51.094;7.030;2023-06-14T11:11:17;23.00;91.30
22623;DHT22;11478;51.094;7.030;2023-06-14T11:13:46;23.00;90.90
22623;DHT22;11478;51.094;7.030;2023-06-14T11:16:14;23.00;91.40
22623;DHT22;11478;51.094;7.030;2023-06-14T11:18:45;23.10;90.70
22623;DHT22;11478;51.094;7.030;2023-06-14T11:21:15;23.10;90.00
22623;DHT22;11478;51.094;7.030;2023-06-14T11:23:52;23.10;90.80
22623;DHT22;11478;51.094;7.030;2023-06-14T11:26:26;23.20;89.90
22623;DHT22;11478;51.094;7.030;2023-06-14T11:28:57;23.30;91.30
22623;DHT22;11478;51.094;7.030;2023-06-14T11:31:23;23.40;89.60
22623;DHT22;11478;51.094;7.030;2023-06-14T11:33:56;23.40;91.40
22623;DHT22;11478;51.094;7.030;2023-06-14T11:36:29;23.40;88.60
22623;DHT22;11478;51.094;7.030;2023-06-14T11:39:04;23.40;90.10
22623;DHT22;11478;51.094;7.030;2023-06-14T11:41:39;23.40;90.20
22623;DHT22;11478;51.094;7.030;2023-06-14T11:44:07;23.40;88.30
22623;DHT22;11478;51.094;7.030;2023-06-14T11:46:33;23.50;86.90
22623;DHT22;11478;51.094;7.030;2023-06-14T11:49:08;23.50;87.60
22623;DHT22;11478;51.094;7.030;2023-06-14T11:51:35;23.50;85.80
22623;DHT22;11478;51.094;7.030;2023-06-14T11:54:04;23.60;85.90
22623;DHT22;11478;51.094;7.030;2023-06-14T11:56:44;23.60;86.60
22623;DHT22;11478;51.094;7.030;2023-06-14T11:59:13;23.70;87.70
22623;DHT22;11478;51.094;7.030;2023-06-14T12:01:43;23.70;88.30
22623;DHT22;11478;51.094;7.030;2023-06-14T12:04:09;23.70;86.40
22623;DHT22;11478;51.094;7.030;2023-06-14T12:06:38;23.80;87.30
22623;DHT22;11478;51.094;7.030;2023-06-14T12:09:08;23.90;85.80
22623;DHT22;11478;51.094;7.030;2023-06-14T12:11:40;24.00;86.50
22623;DHT22;11478;51.094;7.030;2023-06-14T12:14:07;24.10;85.20
22623;DHT22;11478;51.094;7.030;2023-06-14T12:16:43;24.20;85.40
22623;DHT22;11478;51.094;7.030;2023-06-14T12:19:16;24.20;86.30
22623;DHT22;11478;51.094;7.030;2023-06-14T12:21:46;24.20;88.20
22623;DHT22;11478;51.094;7.030;2023-06-14T12:24:16;24.30;88.90
22623;DHT22;11478;51.094;7.030;2023-06-14T12:26:51;24.30;86.30
22623;DHT22;11478;51.094;7.030;2023-06-14T12:29:19;24.40;85.50
22623;DHT22;11478;51.094;7.030;2023-06-14T12:31:46;24.40;82.10
22623;DHT22;11478;51.094;7.030;2023-06-14T12:34:12;24.40;79.70
22623;DHT22;11478;51.094;7.030;2023-06-14T12:36:41;24.40;78.90
22623;DHT22;11478;51.094;7.030;2023-06-14T12:39:10;24.30;77.10
22623;DHT22;11478;51.094;7.030;2023-06-14T12:41:36;24.20;78.80
22623;DHT22;11478;51.094;7.030;2023-06-14T12:44:05;24.20;78.00
22623;DHT22;11478;51.094;7.030;2023-06-14T12:46:37;24.20;78.90
22623;DHT22;11478;51.094;7.030;2023-06-14T12:49:09;24.30;80.60
22623;DHT22;11478;51.094;7.030;2023-06-14T12:51:36;24.30;83.00
22623;DHT22;11478;51.094;7.030;2023-06-14T12:54:11;24.40;79.20
22623;DHT22;11478;51.094;7.030;2023-06-14T12:56:38;24.50;82.50
22623;DHT22;11478;51.094;7.030;2023-06-14T12:59:05;24.60;77.80
22623;DHT22;11478;51.094;7.030;2023-06-14T13:01:34;24.60;79.60
22623;DHT22;11478;51.094;7.030;2023-06-14T13:04:04;24.60;78.90
22623;DHT22;11478;51.094;7.030;2023-06-14T13:06:36;24.60;78.00
22623;DHT22;11478;51.094;7.030;2023-06-14T13:09:06;24.60;78.40
22623;DHT22;11478;51.094;7.030;2023-06-14T13:11:34;24.60;78.40
22623;DHT22;11478;51.094;7.030;2023-06-14T13:14:08;24.60;78.20
22623;DHT22;11478;51.094;7.030;2023-06-14T13:16:34;24.60;79.20
22623;DHT22;11478;51.094;7.030;2023-06-14T13:19:25;24.60;80.30
22623;DHT22;11478;51.094;7.030;2023-06-14T13:22:28;24.50;78.20
22623;DHT22;11478;51.094;7.030;2023-06-14T13:35:27;24.50;77.10
22623;DHT22;11478;51.094;7.030;2023-06-14T13:37:53;24.50;80.30
22623;DHT22;11478;51.094;7.030;2023-06-14T13:40:21;24.60;77.60
22623;DHT22;11478;51.094;7.030;2023-06-14T13:42:50;24.60;79.00
22623;DHT22;11478;51.094;7.030;2023-06-14T13:45:41;24.50;78.20
22623;DHT22;11478;51.094;7.030;2023-06-14T13:48:11;24.50;77.40
22623;DHT22;11478;51.094;7.030;2023-06-14T13:50:38;24.60;79.20
22623;DHT22;11478;51.094;7.030;2023-06-14T13:53:11;24.60;76.70
22623;DHT22;11478;51.094;7.030;2023-06-14T13:55:41;24.60;77.60
22623;DHT22;11478;51.094;7.030;2023-06-14T13:58:07;24.60;77.00
22623;DHT22;11478;51.094;7.030;2023-06-14T14:00:56;24.60;77.60
22623;DHT22;11478;51.094;7.030;2023-06-14T14:03:22;24.60;78.40
22623;DHT22;11478;51.094;7.030;2023-06-14T14:05:48;24.60;76.40
22623;DHT22;11478;51.094;7.030;2023-06-14T14:08:14;24.60;77.60
22623;DHT22;11478;51.094;7.030;2023-06-14T14:10:45;24.60;77.10
22623;DHT22;11478;51.094;7.030;2023-06-14T14:13:11;24.50;77.90
22623;DHT22;11478;51.094;7.030;2023-06-14T14:15:40;24.60;77.10
22623;DHT22;11478;51.094;7.030;2023-06-14T14:18:06;24.70;77.90
22623;DHT22;11478;51.094;7.030;2023-06-14T14:20:45;24.70;82.10
22623;DHT22;11478;51.094;7.030;2023-06-14T14:23:11;24.70;79.80
22623;DHT22;11478;51.094;7.030;2023-06-14T14:25:37;24.60;77.10
22623;DHT22;11478;51.094;7.030;2023-06-14T14:28:07;24.40;75.70
22623;DHT22;11478;51.094;7.030;2023-06-14T14:30:49;24.30;79.60
22623;DHT22;11478;51.094;7.030;2023-06-14T14:33:26;24.20;80.70
22623;DHT22;11478;51.094;7.030;2023-06-14T14:35:52;24.20;79.30
22623;DHT22;11478;51.094;7.030;2023-06-14T14:38:23;24.20;79.80
22623;DHT22;11478;51.094;7.030;2023-06-14T14:40:50;24.30;78.70
22623;DHT22;11478;51.094;7.030;2023-06-14T14:43:19;24.30;78.60
22623;DHT22;11478;51.094;7.030;2023-06-14T14:45:49;24.40;76.50
22623;DHT22;11478;51.094;7.030;2023-06-14T14:48:16;24.50;77.80
22623;DHT22;11478;51.094;7.030;2023-06-14T14:50:42;24.50;77.80
22623;DHT22;11478;51.094;7.030;2023-06-14T14:53:26;24.50;78.50
22623;DHT22;11478;51.094;7.030;2023-06-14T14:55:55;24.50;76.90
22623;DHT22;11478;51.094;7.030;2023-06-14T14:58:31;24.40;77.40
22623;DHT22;11478;51.094;7.030;2023-06-14T15:00:57;24.40;76.80
22623;DHT22;11478;51.094;7.030;2023-06-14T15:03:27;24.40;77.00
22623;DHT22;11478;51.094;7.030;2023-06-14T15:05:54;24.40;79.20
22623;DHT22;11478;51.094;7.030;2023-06-14T15:08:20;24.40;78.00
22623;DHT22;11478;51.094;7.030;2023-06-14T15:10:46;24.40;75.20
22623;DHT22;11478;51.094;7.030;2023-06-14T15:13:15;24.40;75.50
22623;DHT22;11478;51.094;7.030;2023-06-14T15:15:42;24.40;78.50
22623;DHT22;11478;51.094;7.030;2023-06-14T15:18:20;24.40;77.10
22623;DHT22;11478;51.094;7.030;2023-06-14T15:20:47;24.40;77.90
22623;DHT22;11478;51.094;7.030;2023-06-14T15:23:17;24.50;76.70
22623;DHT22;11478;51.094;7.030;2023-06-14T15:25:48;24.60;77.20
22623;DHT22;11478;51.094;7.030;2023-06-14T15:28:15;24.60;76.60
22623;DHT22;11478;51.094;7.030;2023-06-14T15:30:44;24.70;77.60
22623;DHT22;11478;51.094;7.030;2023-06-14T15:36:24;24.80;78.30
22623;DHT22;11478;51.094;7.030;2023-06-14T15:38:53;24.80;79.30
22623;DHT22;11478;51.094;7.030;2023-06-14T15:41:20;24.70;78.10
22623;DHT22;11478;51.094;7.030;2023-06-14T15:43:47;24.60;78.00
22623;DHT22;11478;51.094;7.030;2023-06-14T15:46:13;24.60;79.50
22623;DHT22;11478;51.094;7.030;2023-06-14T15:48:41;24.60;81.30
22623;DHT22;11478;51.094;7.030;2023-06-14T15:51:17;24.60;79.20
22623;DHT22;11478;51.094;7.030;2023-06-14T15:53:54;24.60;75.50
22623;DHT22;11478;51.094;7.030;2023-06-14T15:56:24;24.60;76.40
22623;DHT22;11478;51.094;7.030;2023-06-14T15:58:51;24.60;76.10
22623;DHT22;11478;51.094;7.030;2023-06-14T16:01:17;24.70;77.80
22623;DHT22;11478;51.094;7.030;2023-06-14T16:03:43;24.60;78.40
22623;DHT22;11478;51.094;7.030;2023-06-14T16:06:12;24.60;80.80
22623;DHT22;11478;51.094;7.030;2023-06-14T16:08:40;24.70;76.20
22623;DHT22;11478;51.094;7.030;2023-06-14T16:11:09;24.70;75.50
22623;DHT22;11478;51.094;7.030;2023-06-14T16:13:40;24.80;75.70
22623;DHT22;11478;51.094;7.030;2023-06-14T16:16:09;24.70;76.20